<?xml version="1.0" encoding="UTF-8" standalone="no" ?>
<gpx xmlns="http://www.topografix.com/GPX/1/1" xmlns:xsi="http://www.w3.org/2001/XMLSchema-instance" xsi:schemaLocation="http://www.topografix.com/GPX/1/1 http://www.topografix.com/GPX/1/1/gpx.xsd" version="1.1" creator="VisuGPX - https://www.visugpx.com">
  <metadata>
    <name>La Belle Faye</name>
  </metadata>
  <wpt lat="46.95722" lon="4.68134">
    <ele>398</ele>
    <name><![CDATA[Croisement Route de Beaune]]></name>
  </wpt>
  <wpt lat="46.95795" lon="4.69519">
    <ele>439</ele>
    <name><![CDATA[Fourche en zone dégagée]]></name>
  </wpt>
  <wpt lat="46.9691" lon="4.70996">
    <ele>468</ele>
    <name><![CDATA[Clairière au-dessus du vignoble]]></name>
  </wpt>
  <wpt lat="46.97795" lon="4.71601">
    <ele>423</ele>
    <name><![CDATA[Croisement en T]]></name>
  </wpt>
  <wpt lat="46.98068" lon="4.71029">
    <ele>299</ele>
    <name><![CDATA[Croisement D973 (Vieux Pont)]]></name>
  </wpt>
  <wpt lat="46.97184" lon="4.69695">
    <ele>334</ele>
    <name><![CDATA[Jonction route (Cabane de chasse)]]></name>
  </wpt>
  <wpt lat="46.97048" lon="4.68821">
    <ele>387</ele>
    <name><![CDATA[Chemin de la cité]]></name>
  </wpt>
  <wpt lat="46.9634" lon="4.68333">
    <ele>467</ele>
    <name><![CDATA[Croisement en Y]]></name>
  </wpt>
  <wpt lat="46.96059" lon="4.68033">
    <ele>434</ele>
    <name><![CDATA[Parking Visiteurs]]></name>
  </wpt>
  <trk>
    <name><![CDATA[La Belle Faye]]></name>
    <trkseg>
      <trkpt lat="46.95786" lon="4.67805">
        <ele>406</ele>
        <time>2021-03-07T09:51:17+01:00</time>
      </trkpt>
      <trkpt lat="46.95799" lon="4.67855">
        <ele>406</ele>
        <time>2021-03-07T09:51:22+01:00</time>
      </trkpt>
      <trkpt lat="46.95817" lon="4.67892">
        <ele>407</ele>
        <time>2021-03-07T09:51:27+01:00</time>
      </trkpt>
      <trkpt lat="46.95844" lon="4.67931">
        <ele>409</ele>
        <time>2021-03-07T09:51:32+01:00</time>
      </trkpt>
      <trkpt lat="46.95843" lon="4.68015">
        <ele>409</ele>
        <time>2021-03-07T09:51:37+01:00</time>
      </trkpt>
      <trkpt lat="46.95831" lon="4.68021">
        <ele>408</ele>
        <time>2021-03-07T09:51:42+01:00</time>
      </trkpt>
      <trkpt lat="46.95796" lon="4.68074">
        <ele>402</ele>
        <time>2021-03-07T09:51:47+01:00</time>
      </trkpt>
      <trkpt lat="46.95765" lon="4.6811">
        <ele>396</ele>
        <time>2021-03-07T09:51:52+01:00</time>
      </trkpt>
      <trkpt lat="46.95751" lon="4.68117">
        <ele>393</ele>
        <time>2021-03-07T09:51:57+01:00</time>
      </trkpt>
      <trkpt lat="46.95727" lon="4.6812">
        <ele>397</ele>
        <time>2021-03-07T09:52:02+01:00</time>
      </trkpt>
      <trkpt lat="46.95722" lon="4.68134">
        <ele>398</ele>
        <time>2021-03-07T09:52:07+01:00</time>
      </trkpt>
      <trkpt lat="46.95709" lon="4.68145">
        <ele>401</ele>
        <time>2021-03-07T09:52:12+01:00</time>
      </trkpt>
      <trkpt lat="46.95702" lon="4.6816">
        <ele>403</ele>
        <time>2021-03-07T09:52:17+01:00</time>
      </trkpt>
      <trkpt lat="46.95698" lon="4.6818">
        <ele>405</ele>
        <time>2021-03-07T09:52:22+01:00</time>
      </trkpt>
      <trkpt lat="46.95702" lon="4.68217">
        <ele>409</ele>
        <time>2021-03-07T09:52:27+01:00</time>
      </trkpt>
      <trkpt lat="46.95725" lon="4.68258">
        <ele>406</ele>
        <time>2021-03-07T09:52:32+01:00</time>
      </trkpt>
      <trkpt lat="46.9575" lon="4.68302">
        <ele>404</ele>
        <time>2021-03-07T09:52:37+01:00</time>
      </trkpt>
      <trkpt lat="46.95766" lon="4.68351">
        <ele>406</ele>
        <time>2021-03-07T09:52:42+01:00</time>
      </trkpt>
      <trkpt lat="46.95771" lon="4.68403">
        <ele>409</ele>
        <time>2021-03-07T09:52:47+01:00</time>
      </trkpt>
      <trkpt lat="46.95771" lon="4.68472">
        <ele>414</ele>
        <time>2021-03-07T09:52:52+01:00</time>
      </trkpt>
      <trkpt lat="46.95772" lon="4.68516">
        <ele>416</ele>
        <time>2021-03-07T09:52:57+01:00</time>
      </trkpt>
      <trkpt lat="46.95776" lon="4.68571">
        <ele>417</ele>
        <time>2021-03-07T09:53:02+01:00</time>
      </trkpt>
      <trkpt lat="46.95769" lon="4.68599">
        <ele>418</ele>
        <time>2021-03-07T09:53:07+01:00</time>
      </trkpt>
      <trkpt lat="46.95754" lon="4.68656">
        <ele>416</ele>
        <time>2021-03-07T09:53:12+01:00</time>
      </trkpt>
      <trkpt lat="46.95728" lon="4.68785">
        <ele>419</ele>
        <time>2021-03-07T09:53:17+01:00</time>
      </trkpt>
      <trkpt lat="46.95717" lon="4.68841">
        <ele>422</ele>
        <time>2021-03-07T09:53:22+01:00</time>
      </trkpt>
      <trkpt lat="46.95712" lon="4.68886">
        <ele>423</ele>
        <time>2021-03-07T09:53:27+01:00</time>
      </trkpt>
      <trkpt lat="46.95707" lon="4.6894">
        <ele>425</ele>
        <time>2021-03-07T09:53:32+01:00</time>
      </trkpt>
      <trkpt lat="46.95688" lon="4.69005">
        <ele>431</ele>
        <time>2021-03-07T09:53:37+01:00</time>
      </trkpt>
      <trkpt lat="46.95689" lon="4.69041">
        <ele>432</ele>
        <time>2021-03-07T09:53:42+01:00</time>
      </trkpt>
      <trkpt lat="46.95706" lon="4.69196">
        <ele>432</ele>
        <time>2021-03-07T09:53:47+01:00</time>
      </trkpt>
      <trkpt lat="46.95729" lon="4.69329">
        <ele>434</ele>
        <time>2021-03-07T09:53:52+01:00</time>
      </trkpt>
      <trkpt lat="46.95763" lon="4.69408">
        <ele>435</ele>
        <time>2021-03-07T09:53:57+01:00</time>
      </trkpt>
      <trkpt lat="46.95795" lon="4.69519">
        <ele>439</ele>
        <time>2021-03-07T09:54:02+01:00</time>
      </trkpt>
      <trkpt lat="46.95879" lon="4.69607">
        <ele>444</ele>
        <time>2021-03-07T09:54:07+01:00</time>
      </trkpt>
      <trkpt lat="46.95932" lon="4.69649">
        <ele>448</ele>
        <time>2021-03-07T09:54:12+01:00</time>
      </trkpt>
      <trkpt lat="46.95937" lon="4.6966">
        <ele>449</ele>
        <time>2021-03-07T09:54:17+01:00</time>
      </trkpt>
      <trkpt lat="46.95941" lon="4.69699">
        <ele>449</ele>
        <time>2021-03-07T09:54:22+01:00</time>
      </trkpt>
      <trkpt lat="46.95947" lon="4.69724">
        <ele>450</ele>
        <time>2021-03-07T09:54:27+01:00</time>
      </trkpt>
      <trkpt lat="46.9596" lon="4.69765">
        <ele>451</ele>
        <time>2021-03-07T09:54:32+01:00</time>
      </trkpt>
      <trkpt lat="46.95987" lon="4.69825">
        <ele>452</ele>
        <time>2021-03-07T09:54:37+01:00</time>
      </trkpt>
      <trkpt lat="46.96" lon="4.69848">
        <ele>452</ele>
        <time>2021-03-07T09:54:42+01:00</time>
      </trkpt>
      <trkpt lat="46.96062" lon="4.69918">
        <ele>455</ele>
        <time>2021-03-07T09:54:47+01:00</time>
      </trkpt>
      <trkpt lat="46.96095" lon="4.69962">
        <ele>456</ele>
        <time>2021-03-07T09:54:52+01:00</time>
      </trkpt>
      <trkpt lat="46.96124" lon="4.70061">
        <ele>456</ele>
        <time>2021-03-07T09:54:57+01:00</time>
      </trkpt>
      <trkpt lat="46.96134" lon="4.70074">
        <ele>457</ele>
        <time>2021-03-07T09:55:02+01:00</time>
      </trkpt>
      <trkpt lat="46.96162" lon="4.70101">
        <ele>459</ele>
        <time>2021-03-07T09:55:07+01:00</time>
      </trkpt>
      <trkpt lat="46.96184" lon="4.70126">
        <ele>459</ele>
        <time>2021-03-07T09:55:12+01:00</time>
      </trkpt>
      <trkpt lat="46.96221" lon="4.70138">
        <ele>461</ele>
        <time>2021-03-07T09:55:17+01:00</time>
      </trkpt>
      <trkpt lat="46.96262" lon="4.70128">
        <ele>463</ele>
        <time>2021-03-07T09:55:22+01:00</time>
      </trkpt>
      <trkpt lat="46.96282" lon="4.7013">
        <ele>463</ele>
        <time>2021-03-07T09:55:27+01:00</time>
      </trkpt>
      <trkpt lat="46.96298" lon="4.70139">
        <ele>464</ele>
        <time>2021-03-07T09:55:32+01:00</time>
      </trkpt>
      <trkpt lat="46.9632" lon="4.70168">
        <ele>465</ele>
        <time>2021-03-07T09:55:37+01:00</time>
      </trkpt>
      <trkpt lat="46.96331" lon="4.70183">
        <ele>466</ele>
        <time>2021-03-07T09:55:42+01:00</time>
      </trkpt>
      <trkpt lat="46.96374" lon="4.70218">
        <ele>467</ele>
        <time>2021-03-07T09:55:47+01:00</time>
      </trkpt>
      <trkpt lat="46.96421" lon="4.70247">
        <ele>469</ele>
        <time>2021-03-07T09:55:52+01:00</time>
      </trkpt>
      <trkpt lat="46.96435" lon="4.70261">
        <ele>469</ele>
        <time>2021-03-07T09:55:57+01:00</time>
      </trkpt>
      <trkpt lat="46.96497" lon="4.70342">
        <ele>473</ele>
        <time>2021-03-07T09:56:02+01:00</time>
      </trkpt>
      <trkpt lat="46.96559" lon="4.70417">
        <ele>479</ele>
        <time>2021-03-07T09:56:07+01:00</time>
      </trkpt>
      <trkpt lat="46.96618" lon="4.70492">
        <ele>482</ele>
        <time>2021-03-07T09:56:12+01:00</time>
      </trkpt>
      <trkpt lat="46.96681" lon="4.7059">
        <ele>481</ele>
        <time>2021-03-07T09:56:17+01:00</time>
      </trkpt>
      <trkpt lat="46.96692" lon="4.70613">
        <ele>480</ele>
        <time>2021-03-07T09:56:22+01:00</time>
      </trkpt>
      <trkpt lat="46.96723" lon="4.70713">
        <ele>475</ele>
        <time>2021-03-07T09:56:27+01:00</time>
      </trkpt>
      <trkpt lat="46.96776" lon="4.7086">
        <ele>468</ele>
        <time>2021-03-07T09:56:32+01:00</time>
      </trkpt>
      <trkpt lat="46.96791" lon="4.70883">
        <ele>467</ele>
        <time>2021-03-07T09:56:37+01:00</time>
      </trkpt>
      <trkpt lat="46.96856" lon="4.70946">
        <ele>466</ele>
        <time>2021-03-07T09:56:42+01:00</time>
      </trkpt>
      <trkpt lat="46.9691" lon="4.70996">
        <ele>468</ele>
        <time>2021-03-07T09:56:47+01:00</time>
      </trkpt>
      <trkpt lat="46.9692" lon="4.71003">
        <ele>468</ele>
        <time>2021-03-07T09:56:52+01:00</time>
      </trkpt>
      <trkpt lat="46.96963" lon="4.71052">
        <ele>470</ele>
        <time>2021-03-07T09:56:57+01:00</time>
      </trkpt>
      <trkpt lat="46.9698" lon="4.71119">
        <ele>470</ele>
        <time>2021-03-07T09:57:02+01:00</time>
      </trkpt>
      <trkpt lat="46.97021" lon="4.71298">
        <ele>469</ele>
        <time>2021-03-07T09:57:07+01:00</time>
      </trkpt>
      <trkpt lat="46.97041" lon="4.71398">
        <ele>467</ele>
        <time>2021-03-07T09:57:12+01:00</time>
      </trkpt>
      <trkpt lat="46.97037" lon="4.71505">
        <ele>464</ele>
        <time>2021-03-07T09:57:17+01:00</time>
      </trkpt>
      <trkpt lat="46.97035" lon="4.71537">
        <ele>463</ele>
        <time>2021-03-07T09:57:22+01:00</time>
      </trkpt>
      <trkpt lat="46.97031" lon="4.71561">
        <ele>463</ele>
        <time>2021-03-07T09:57:27+01:00</time>
      </trkpt>
      <trkpt lat="46.97013" lon="4.71646">
        <ele>461</ele>
        <time>2021-03-07T09:57:32+01:00</time>
      </trkpt>
      <trkpt lat="46.9703" lon="4.71634">
        <ele>462</ele>
        <time>2021-03-07T09:57:37+01:00</time>
      </trkpt>
      <trkpt lat="46.97045" lon="4.71631">
        <ele>463</ele>
        <time>2021-03-07T09:57:42+01:00</time>
      </trkpt>
      <trkpt lat="46.97061" lon="4.7161">
        <ele>464</ele>
        <time>2021-03-07T09:57:47+01:00</time>
      </trkpt>
      <trkpt lat="46.97076" lon="4.716">
        <ele>465</ele>
        <time>2021-03-07T09:57:52+01:00</time>
      </trkpt>
      <trkpt lat="46.97086" lon="4.71602">
        <ele>466</ele>
        <time>2021-03-07T09:57:57+01:00</time>
      </trkpt>
      <trkpt lat="46.97111" lon="4.71613">
        <ele>466</ele>
        <time>2021-03-07T09:58:02+01:00</time>
      </trkpt>
      <trkpt lat="46.97129" lon="4.71629">
        <ele>466</ele>
        <time>2021-03-07T09:58:07+01:00</time>
      </trkpt>
      <trkpt lat="46.97162" lon="4.71633">
        <ele>467</ele>
        <time>2021-03-07T09:58:12+01:00</time>
      </trkpt>
      <trkpt lat="46.97181" lon="4.71632">
        <ele>467</ele>
        <time>2021-03-07T09:58:17+01:00</time>
      </trkpt>
      <trkpt lat="46.97196" lon="4.71648">
        <ele>466</ele>
        <time>2021-03-07T09:58:22+01:00</time>
      </trkpt>
      <trkpt lat="46.97225" lon="4.71633">
        <ele>466</ele>
        <time>2021-03-07T09:58:27+01:00</time>
      </trkpt>
      <trkpt lat="46.97264" lon="4.71624">
        <ele>466</ele>
        <time>2021-03-07T09:58:32+01:00</time>
      </trkpt>
      <trkpt lat="46.97284" lon="4.71611">
        <ele>465</ele>
        <time>2021-03-07T09:58:37+01:00</time>
      </trkpt>
      <trkpt lat="46.97299" lon="4.7159">
        <ele>465</ele>
        <time>2021-03-07T09:58:42+01:00</time>
      </trkpt>
      <trkpt lat="46.97311" lon="4.71579">
        <ele>465</ele>
        <time>2021-03-07T09:58:47+01:00</time>
      </trkpt>
      <trkpt lat="46.97314" lon="4.71566">
        <ele>466</ele>
        <time>2021-03-07T09:58:52+01:00</time>
      </trkpt>
      <trkpt lat="46.97319" lon="4.71536">
        <ele>467</ele>
        <time>2021-03-07T09:58:57+01:00</time>
      </trkpt>
      <trkpt lat="46.9733" lon="4.7153">
        <ele>467</ele>
        <time>2021-03-07T09:59:02+01:00</time>
      </trkpt>
      <trkpt lat="46.97356" lon="4.71564">
        <ele>462</ele>
        <time>2021-03-07T09:59:07+01:00</time>
      </trkpt>
      <trkpt lat="46.97395" lon="4.71567">
        <ele>458</ele>
        <time>2021-03-07T09:59:12+01:00</time>
      </trkpt>
      <trkpt lat="46.97426" lon="4.7157">
        <ele>454</ele>
        <time>2021-03-07T09:59:17+01:00</time>
      </trkpt>
      <trkpt lat="46.97483" lon="4.71565">
        <ele>448</ele>
        <time>2021-03-07T09:59:22+01:00</time>
      </trkpt>
      <trkpt lat="46.97523" lon="4.71555">
        <ele>446</ele>
        <time>2021-03-07T09:59:27+01:00</time>
      </trkpt>
      <trkpt lat="46.9754" lon="4.71558">
        <ele>445</ele>
        <time>2021-03-07T09:59:32+01:00</time>
      </trkpt>
      <trkpt lat="46.97565" lon="4.71546">
        <ele>444</ele>
        <time>2021-03-07T09:59:37+01:00</time>
      </trkpt>
      <trkpt lat="46.97581" lon="4.71536">
        <ele>444</ele>
        <time>2021-03-07T09:59:42+01:00</time>
      </trkpt>
      <trkpt lat="46.97591" lon="4.7155">
        <ele>443</ele>
        <time>2021-03-07T09:59:47+01:00</time>
      </trkpt>
      <trkpt lat="46.97619" lon="4.71548">
        <ele>441</ele>
        <time>2021-03-07T09:59:52+01:00</time>
      </trkpt>
      <trkpt lat="46.97625" lon="4.71539">
        <ele>441</ele>
        <time>2021-03-07T09:59:57+01:00</time>
      </trkpt>
      <trkpt lat="46.97685" lon="4.71541">
        <ele>436</ele>
        <time>2021-03-07T10:00:02+01:00</time>
      </trkpt>
      <trkpt lat="46.97697" lon="4.71549">
        <ele>434</ele>
        <time>2021-03-07T10:00:07+01:00</time>
      </trkpt>
      <trkpt lat="46.97734" lon="4.71578">
        <ele>431</ele>
        <time>2021-03-07T10:00:12+01:00</time>
      </trkpt>
      <trkpt lat="46.97742" lon="4.7159">
        <ele>430</ele>
        <time>2021-03-07T10:00:17+01:00</time>
      </trkpt>
      <trkpt lat="46.9779" lon="4.71604">
        <ele>424</ele>
        <time>2021-03-07T10:00:22+01:00</time>
      </trkpt>
      <trkpt lat="46.97795" lon="4.71601">
        <ele>423</ele>
        <time>2021-03-07T10:00:27+01:00</time>
      </trkpt>
      <trkpt lat="46.97793" lon="4.7159">
        <ele>422</ele>
        <time>2021-03-07T10:00:32+01:00</time>
      </trkpt>
      <trkpt lat="46.97785" lon="4.71563">
        <ele>421</ele>
        <time>2021-03-07T10:00:37+01:00</time>
      </trkpt>
      <trkpt lat="46.97781" lon="4.71518">
        <ele>418</ele>
        <time>2021-03-07T10:00:42+01:00</time>
      </trkpt>
      <trkpt lat="46.97779" lon="4.71501">
        <ele>417</ele>
        <time>2021-03-07T10:00:47+01:00</time>
      </trkpt>
      <trkpt lat="46.97773" lon="4.71469">
        <ele>416</ele>
        <time>2021-03-07T10:00:52+01:00</time>
      </trkpt>
      <trkpt lat="46.97771" lon="4.7145">
        <ele>415</ele>
        <time>2021-03-07T10:00:57+01:00</time>
      </trkpt>
      <trkpt lat="46.97774" lon="4.7141">
        <ele>411</ele>
        <time>2021-03-07T10:01:02+01:00</time>
      </trkpt>
      <trkpt lat="46.97793" lon="4.71337">
        <ele>400</ele>
        <time>2021-03-07T10:01:07+01:00</time>
      </trkpt>
      <trkpt lat="46.97819" lon="4.71285">
        <ele>388</ele>
        <time>2021-03-07T10:01:12+01:00</time>
      </trkpt>
      <trkpt lat="46.97833" lon="4.71254">
        <ele>382</ele>
        <time>2021-03-07T10:01:17+01:00</time>
      </trkpt>
      <trkpt lat="46.97833" lon="4.71214">
        <ele>380</ele>
        <time>2021-03-07T10:01:22+01:00</time>
      </trkpt>
      <trkpt lat="46.97825" lon="4.71183">
        <ele>380</ele>
        <time>2021-03-07T10:01:27+01:00</time>
      </trkpt>
      <trkpt lat="46.97845" lon="4.71183">
        <ele>374</ele>
        <time>2021-03-07T10:01:32+01:00</time>
      </trkpt>
      <trkpt lat="46.97851" lon="4.71193">
        <ele>373</ele>
        <time>2021-03-07T10:01:37+01:00</time>
      </trkpt>
      <trkpt lat="46.97883" lon="4.71215">
        <ele>366</ele>
        <time>2021-03-07T10:01:42+01:00</time>
      </trkpt>
      <trkpt lat="46.9791" lon="4.71236">
        <ele>362</ele>
        <time>2021-03-07T10:01:47+01:00</time>
      </trkpt>
      <trkpt lat="46.97938" lon="4.71263">
        <ele>356</ele>
        <time>2021-03-07T10:01:52+01:00</time>
      </trkpt>
      <trkpt lat="46.97974" lon="4.71291">
        <ele>347</ele>
        <time>2021-03-07T10:01:57+01:00</time>
      </trkpt>
      <trkpt lat="46.97997" lon="4.71309">
        <ele>343</ele>
        <time>2021-03-07T10:02:02+01:00</time>
      </trkpt>
      <trkpt lat="46.9806" lon="4.71332">
        <ele>330</ele>
        <time>2021-03-07T10:02:07+01:00</time>
      </trkpt>
      <trkpt lat="46.98102" lon="4.71354">
        <ele>323</ele>
        <time>2021-03-07T10:02:12+01:00</time>
      </trkpt>
      <trkpt lat="46.98091" lon="4.71325">
        <ele>321</ele>
        <time>2021-03-07T10:02:17+01:00</time>
      </trkpt>
      <trkpt lat="46.98084" lon="4.71281">
        <ele>316</ele>
        <time>2021-03-07T10:02:22+01:00</time>
      </trkpt>
      <trkpt lat="46.9808" lon="4.71234">
        <ele>311</ele>
        <time>2021-03-07T10:02:27+01:00</time>
      </trkpt>
      <trkpt lat="46.98076" lon="4.7118">
        <ele>307</ele>
        <time>2021-03-07T10:02:32+01:00</time>
      </trkpt>
      <trkpt lat="46.98077" lon="4.71125">
        <ele>302</ele>
        <time>2021-03-07T10:02:37+01:00</time>
      </trkpt>
      <trkpt lat="46.98067" lon="4.71096">
        <ele>302</ele>
        <time>2021-03-07T10:02:42+01:00</time>
      </trkpt>
      <trkpt lat="46.98065" lon="4.71081">
        <ele>301</ele>
        <time>2021-03-07T10:02:47+01:00</time>
      </trkpt>
      <trkpt lat="46.98068" lon="4.71029">
        <ele>299</ele>
        <time>2021-03-07T10:02:52+01:00</time>
      </trkpt>
      <trkpt lat="46.98058" lon="4.71022">
        <ele>299</ele>
        <time>2021-03-07T10:02:57+01:00</time>
      </trkpt>
      <trkpt lat="46.98099" lon="4.70865">
        <ele>301</ele>
        <time>2021-03-07T10:03:02+01:00</time>
      </trkpt>
      <trkpt lat="46.98105" lon="4.70814">
        <ele>303</ele>
        <time>2021-03-07T10:03:07+01:00</time>
      </trkpt>
      <trkpt lat="46.98113" lon="4.70749">
        <ele>306</ele>
        <time>2021-03-07T10:03:12+01:00</time>
      </trkpt>
      <trkpt lat="46.98077" lon="4.70732">
        <ele>301</ele>
        <time>2021-03-07T10:03:17+01:00</time>
      </trkpt>
      <trkpt lat="46.98042" lon="4.70703">
        <ele>301</ele>
        <time>2021-03-07T10:03:22+01:00</time>
      </trkpt>
      <trkpt lat="46.98014" lon="4.7067">
        <ele>301</ele>
        <time>2021-03-07T10:03:27+01:00</time>
      </trkpt>
      <trkpt lat="46.98008" lon="4.70655">
        <ele>301</ele>
        <time>2021-03-07T10:03:32+01:00</time>
      </trkpt>
      <trkpt lat="46.97998" lon="4.70598">
        <ele>303</ele>
        <time>2021-03-07T10:03:37+01:00</time>
      </trkpt>
      <trkpt lat="46.9798" lon="4.70556">
        <ele>302</ele>
        <time>2021-03-07T10:03:42+01:00</time>
      </trkpt>
      <trkpt lat="46.97978" lon="4.70468">
        <ele>304</ele>
        <time>2021-03-07T10:03:47+01:00</time>
      </trkpt>
      <trkpt lat="46.9798" lon="4.7043">
        <ele>306</ele>
        <time>2021-03-07T10:03:52+01:00</time>
      </trkpt>
      <trkpt lat="46.9799" lon="4.70383">
        <ele>311</ele>
        <time>2021-03-07T10:03:57+01:00</time>
      </trkpt>
      <trkpt lat="46.97986" lon="4.70378">
        <ele>311</ele>
        <time>2021-03-07T10:04:02+01:00</time>
      </trkpt>
      <trkpt lat="46.97943" lon="4.70339">
        <ele>312</ele>
        <time>2021-03-07T10:04:07+01:00</time>
      </trkpt>
      <trkpt lat="46.97893" lon="4.70295">
        <ele>316</ele>
        <time>2021-03-07T10:04:12+01:00</time>
      </trkpt>
      <trkpt lat="46.97882" lon="4.70279">
        <ele>318</ele>
        <time>2021-03-07T10:04:17+01:00</time>
      </trkpt>
      <trkpt lat="46.97786" lon="4.70238">
        <ele>316</ele>
        <time>2021-03-07T10:04:22+01:00</time>
      </trkpt>
      <trkpt lat="46.9776" lon="4.70224">
        <ele>316</ele>
        <time>2021-03-07T10:04:27+01:00</time>
      </trkpt>
      <trkpt lat="46.97748" lon="4.70219">
        <ele>315</ele>
        <time>2021-03-07T10:04:32+01:00</time>
      </trkpt>
      <trkpt lat="46.97721" lon="4.70198">
        <ele>317</ele>
        <time>2021-03-07T10:04:37+01:00</time>
      </trkpt>
      <trkpt lat="46.977" lon="4.70172">
        <ele>319</ele>
        <time>2021-03-07T10:04:42+01:00</time>
      </trkpt>
      <trkpt lat="46.97631" lon="4.70057">
        <ele>331</ele>
        <time>2021-03-07T10:04:47+01:00</time>
      </trkpt>
      <trkpt lat="46.97603" lon="4.70004">
        <ele>336</ele>
        <time>2021-03-07T10:04:52+01:00</time>
      </trkpt>
      <trkpt lat="46.97556" lon="4.69945">
        <ele>338</ele>
        <time>2021-03-07T10:04:57+01:00</time>
      </trkpt>
      <trkpt lat="46.97536" lon="4.69927">
        <ele>339</ele>
        <time>2021-03-07T10:05:02+01:00</time>
      </trkpt>
      <trkpt lat="46.97509" lon="4.69908">
        <ele>340</ele>
        <time>2021-03-07T10:05:07+01:00</time>
      </trkpt>
      <trkpt lat="46.97441" lon="4.6985">
        <ele>341</ele>
        <time>2021-03-07T10:05:12+01:00</time>
      </trkpt>
      <trkpt lat="46.97418" lon="4.69828">
        <ele>343</ele>
        <time>2021-03-07T10:05:17+01:00</time>
      </trkpt>
      <trkpt lat="46.97404" lon="4.69821">
        <ele>342</ele>
        <time>2021-03-07T10:05:22+01:00</time>
      </trkpt>
      <trkpt lat="46.9739" lon="4.6982">
        <ele>342</ele>
        <time>2021-03-07T10:05:27+01:00</time>
      </trkpt>
      <trkpt lat="46.97367" lon="4.69853">
        <ele>336</ele>
        <time>2021-03-07T10:05:32+01:00</time>
      </trkpt>
      <trkpt lat="46.97352" lon="4.69863">
        <ele>334</ele>
        <time>2021-03-07T10:05:37+01:00</time>
      </trkpt>
      <trkpt lat="46.97339" lon="4.69864">
        <ele>333</ele>
        <time>2021-03-07T10:05:42+01:00</time>
      </trkpt>
      <trkpt lat="46.97315" lon="4.69851">
        <ele>332</ele>
        <time>2021-03-07T10:05:47+01:00</time>
      </trkpt>
      <trkpt lat="46.9728" lon="4.69819">
        <ele>332</ele>
        <time>2021-03-07T10:05:52+01:00</time>
      </trkpt>
      <trkpt lat="46.97243" lon="4.69775">
        <ele>333</ele>
        <time>2021-03-07T10:05:57+01:00</time>
      </trkpt>
      <trkpt lat="46.97184" lon="4.69695">
        <ele>334</ele>
        <time>2021-03-07T10:06:02+01:00</time>
      </trkpt>
      <trkpt lat="46.97173" lon="4.697">
        <ele>333</ele>
        <time>2021-03-07T10:06:07+01:00</time>
      </trkpt>
      <trkpt lat="46.97145" lon="4.69696">
        <ele>330</ele>
        <time>2021-03-07T10:06:12+01:00</time>
      </trkpt>
      <trkpt lat="46.97119" lon="4.69686">
        <ele>328</ele>
        <time>2021-03-07T10:06:17+01:00</time>
      </trkpt>
      <trkpt lat="46.97092" lon="4.69667">
        <ele>326</ele>
        <time>2021-03-07T10:06:22+01:00</time>
      </trkpt>
      <trkpt lat="46.97072" lon="4.69662">
        <ele>325</ele>
        <time>2021-03-07T10:06:27+01:00</time>
      </trkpt>
      <trkpt lat="46.97071" lon="4.69633">
        <ele>328</ele>
        <time>2021-03-07T10:06:32+01:00</time>
      </trkpt>
      <trkpt lat="46.97048" lon="4.69527">
        <ele>332</ele>
        <time>2021-03-07T10:06:37+01:00</time>
      </trkpt>
      <trkpt lat="46.97049" lon="4.69495">
        <ele>333</ele>
        <time>2021-03-07T10:06:42+01:00</time>
      </trkpt>
      <trkpt lat="46.97058" lon="4.69482">
        <ele>334</ele>
        <time>2021-03-07T10:06:47+01:00</time>
      </trkpt>
      <trkpt lat="46.97043" lon="4.69462">
        <ele>333</ele>
        <time>2021-03-07T10:06:52+01:00</time>
      </trkpt>
      <trkpt lat="46.97042" lon="4.69429">
        <ele>334</ele>
        <time>2021-03-07T10:06:57+01:00</time>
      </trkpt>
      <trkpt lat="46.97035" lon="4.69404">
        <ele>335</ele>
        <time>2021-03-07T10:07:02+01:00</time>
      </trkpt>
      <trkpt lat="46.9703" lon="4.69388">
        <ele>337</ele>
        <time>2021-03-07T10:07:07+01:00</time>
      </trkpt>
      <trkpt lat="46.97031" lon="4.6937">
        <ele>339</ele>
        <time>2021-03-07T10:07:12+01:00</time>
      </trkpt>
      <trkpt lat="46.97051" lon="4.69303">
        <ele>344</ele>
        <time>2021-03-07T10:07:17+01:00</time>
      </trkpt>
      <trkpt lat="46.97049" lon="4.69266">
        <ele>349</ele>
        <time>2021-03-07T10:07:22+01:00</time>
      </trkpt>
      <trkpt lat="46.97053" lon="4.6922">
        <ele>354</ele>
        <time>2021-03-07T10:07:27+01:00</time>
      </trkpt>
      <trkpt lat="46.97052" lon="4.69175">
        <ele>361</ele>
        <time>2021-03-07T10:07:32+01:00</time>
      </trkpt>
      <trkpt lat="46.97057" lon="4.69115">
        <ele>367</ele>
        <time>2021-03-07T10:07:37+01:00</time>
      </trkpt>
      <trkpt lat="46.97049" lon="4.6906">
        <ele>374</ele>
        <time>2021-03-07T10:07:42+01:00</time>
      </trkpt>
      <trkpt lat="46.97045" lon="4.69045">
        <ele>376</ele>
        <time>2021-03-07T10:07:47+01:00</time>
      </trkpt>
      <trkpt lat="46.97046" lon="4.69019">
        <ele>379</ele>
        <time>2021-03-07T10:07:52+01:00</time>
      </trkpt>
      <trkpt lat="46.97064" lon="4.68966">
        <ele>382</ele>
        <time>2021-03-07T10:07:57+01:00</time>
      </trkpt>
      <trkpt lat="46.97066" lon="4.68907">
        <ele>386</ele>
        <time>2021-03-07T10:08:02+01:00</time>
      </trkpt>
      <trkpt lat="46.97048" lon="4.68821">
        <ele>387</ele>
        <time>2021-03-07T10:08:07+01:00</time>
      </trkpt>
      <trkpt lat="46.97027" lon="4.68823">
        <ele>391</ele>
        <time>2021-03-07T10:08:12+01:00</time>
      </trkpt>
      <trkpt lat="46.97005" lon="4.68825">
        <ele>395</ele>
        <time>2021-03-07T10:08:17+01:00</time>
      </trkpt>
      <trkpt lat="46.96988" lon="4.68823">
        <ele>397</ele>
        <time>2021-03-07T10:08:22+01:00</time>
      </trkpt>
      <trkpt lat="46.96969" lon="4.68845">
        <ele>398</ele>
        <time>2021-03-07T10:08:27+01:00</time>
      </trkpt>
      <trkpt lat="46.96963" lon="4.68845">
        <ele>399</ele>
        <time>2021-03-07T10:08:32+01:00</time>
      </trkpt>
      <trkpt lat="46.96947" lon="4.68837">
        <ele>401</ele>
        <time>2021-03-07T10:08:37+01:00</time>
      </trkpt>
      <trkpt lat="46.9693" lon="4.68851">
        <ele>402</ele>
        <time>2021-03-07T10:08:42+01:00</time>
      </trkpt>
      <trkpt lat="46.96913" lon="4.68857">
        <ele>403</ele>
        <time>2021-03-07T10:08:47+01:00</time>
      </trkpt>
      <trkpt lat="46.969" lon="4.68877">
        <ele>403</ele>
        <time>2021-03-07T10:08:52+01:00</time>
      </trkpt>
      <trkpt lat="46.9689" lon="4.68898">
        <ele>403</ele>
        <time>2021-03-07T10:08:57+01:00</time>
      </trkpt>
      <trkpt lat="46.96882" lon="4.68928">
        <ele>402</ele>
        <time>2021-03-07T10:09:02+01:00</time>
      </trkpt>
      <trkpt lat="46.96874" lon="4.68952">
        <ele>403</ele>
        <time>2021-03-07T10:09:07+01:00</time>
      </trkpt>
      <trkpt lat="46.96858" lon="4.68976">
        <ele>404</ele>
        <time>2021-03-07T10:09:12+01:00</time>
      </trkpt>
      <trkpt lat="46.9685" lon="4.68975">
        <ele>404</ele>
        <time>2021-03-07T10:09:17+01:00</time>
      </trkpt>
      <trkpt lat="46.9683" lon="4.68955">
        <ele>407</ele>
        <time>2021-03-07T10:09:22+01:00</time>
      </trkpt>
      <trkpt lat="46.96805" lon="4.68943">
        <ele>408</ele>
        <time>2021-03-07T10:09:27+01:00</time>
      </trkpt>
      <trkpt lat="46.96779" lon="4.68914">
        <ele>412</ele>
        <time>2021-03-07T10:09:32+01:00</time>
      </trkpt>
      <trkpt lat="46.96727" lon="4.68853">
        <ele>418</ele>
        <time>2021-03-07T10:09:37+01:00</time>
      </trkpt>
      <trkpt lat="46.96692" lon="4.68798">
        <ele>420</ele>
        <time>2021-03-07T10:09:42+01:00</time>
      </trkpt>
      <trkpt lat="46.96667" lon="4.68756">
        <ele>424</ele>
        <time>2021-03-07T10:09:47+01:00</time>
      </trkpt>
      <trkpt lat="46.96655" lon="4.68737">
        <ele>424</ele>
        <time>2021-03-07T10:09:52+01:00</time>
      </trkpt>
      <trkpt lat="46.96656" lon="4.68708">
        <ele>424</ele>
        <time>2021-03-07T10:09:57+01:00</time>
      </trkpt>
      <trkpt lat="46.96652" lon="4.68697">
        <ele>424</ele>
        <time>2021-03-07T10:10:02+01:00</time>
      </trkpt>
      <trkpt lat="46.96614" lon="4.68675">
        <ele>426</ele>
        <time>2021-03-07T10:10:07+01:00</time>
      </trkpt>
      <trkpt lat="46.96558" lon="4.68627">
        <ele>431</ele>
        <time>2021-03-07T10:10:12+01:00</time>
      </trkpt>
      <trkpt lat="46.96539" lon="4.68612">
        <ele>433</ele>
        <time>2021-03-07T10:10:17+01:00</time>
      </trkpt>
      <trkpt lat="46.96526" lon="4.686">
        <ele>435</ele>
        <time>2021-03-07T10:10:22+01:00</time>
      </trkpt>
      <trkpt lat="46.96506" lon="4.68571">
        <ele>439</ele>
        <time>2021-03-07T10:10:27+01:00</time>
      </trkpt>
      <trkpt lat="46.96484" lon="4.68553">
        <ele>441</ele>
        <time>2021-03-07T10:10:32+01:00</time>
      </trkpt>
      <trkpt lat="46.96465" lon="4.68532">
        <ele>443</ele>
        <time>2021-03-07T10:10:37+01:00</time>
      </trkpt>
      <trkpt lat="46.96449" lon="4.6852">
        <ele>446</ele>
        <time>2021-03-07T10:10:42+01:00</time>
      </trkpt>
      <trkpt lat="46.96412" lon="4.68459">
        <ele>454</ele>
        <time>2021-03-07T10:10:47+01:00</time>
      </trkpt>
      <trkpt lat="46.96398" lon="4.6845">
        <ele>456</ele>
        <time>2021-03-07T10:10:52+01:00</time>
      </trkpt>
      <trkpt lat="46.96375" lon="4.68424">
        <ele>459</ele>
        <time>2021-03-07T10:10:57+01:00</time>
      </trkpt>
      <trkpt lat="46.96351" lon="4.68384">
        <ele>463</ele>
        <time>2021-03-07T10:11:02+01:00</time>
      </trkpt>
      <trkpt lat="46.96342" lon="4.68352">
        <ele>466</ele>
        <time>2021-03-07T10:11:07+01:00</time>
      </trkpt>
      <trkpt lat="46.9634" lon="4.68333">
        <ele>467</ele>
        <time>2021-03-07T10:11:12+01:00</time>
      </trkpt>
      <trkpt lat="46.96315" lon="4.68314">
        <ele>468</ele>
        <time>2021-03-07T10:11:17+01:00</time>
      </trkpt>
      <trkpt lat="46.96298" lon="4.68297">
        <ele>469</ele>
        <time>2021-03-07T10:11:22+01:00</time>
      </trkpt>
      <trkpt lat="46.96286" lon="4.6829">
        <ele>471</ele>
        <time>2021-03-07T10:11:27+01:00</time>
      </trkpt>
      <trkpt lat="46.96269" lon="4.68285">
        <ele>473</ele>
        <time>2021-03-07T10:11:32+01:00</time>
      </trkpt>
      <trkpt lat="46.96252" lon="4.68278">
        <ele>475</ele>
        <time>2021-03-07T10:11:37+01:00</time>
      </trkpt>
      <trkpt lat="46.96237" lon="4.68266">
        <ele>476</ele>
        <time>2021-03-07T10:11:42+01:00</time>
      </trkpt>
      <trkpt lat="46.96219" lon="4.68251">
        <ele>476</ele>
        <time>2021-03-07T10:11:47+01:00</time>
      </trkpt>
      <trkpt lat="46.96192" lon="4.68232">
        <ele>472</ele>
        <time>2021-03-07T10:11:52+01:00</time>
      </trkpt>
      <trkpt lat="46.9617" lon="4.68216">
        <ele>470</ele>
        <time>2021-03-07T10:11:57+01:00</time>
      </trkpt>
      <trkpt lat="46.9616" lon="4.6821">
        <ele>469</ele>
        <time>2021-03-07T10:12:02+01:00</time>
      </trkpt>
      <trkpt lat="46.96142" lon="4.6821">
        <ele>467</ele>
        <time>2021-03-07T10:12:07+01:00</time>
      </trkpt>
      <trkpt lat="46.96119" lon="4.68212">
        <ele>465</ele>
        <time>2021-03-07T10:12:12+01:00</time>
      </trkpt>
      <trkpt lat="46.96104" lon="4.68215">
        <ele>464</ele>
        <time>2021-03-07T10:12:17+01:00</time>
      </trkpt>
      <trkpt lat="46.96082" lon="4.68229">
        <ele>463</ele>
        <time>2021-03-07T10:12:22+01:00</time>
      </trkpt>
      <trkpt lat="46.96064" lon="4.68238">
        <ele>460</ele>
        <time>2021-03-07T10:12:27+01:00</time>
      </trkpt>
      <trkpt lat="46.96038" lon="4.68247">
        <ele>455</ele>
        <time>2021-03-07T10:12:32+01:00</time>
      </trkpt>
      <trkpt lat="46.96018" lon="4.68247">
        <ele>452</ele>
        <time>2021-03-07T10:12:37+01:00</time>
      </trkpt>
      <trkpt lat="46.96004" lon="4.68235">
        <ele>450</ele>
        <time>2021-03-07T10:12:42+01:00</time>
      </trkpt>
      <trkpt lat="46.95995" lon="4.68214">
        <ele>449</ele>
        <time>2021-03-07T10:12:47+01:00</time>
      </trkpt>
      <trkpt lat="46.95992" lon="4.68194">
        <ele>449</ele>
        <time>2021-03-07T10:12:52+01:00</time>
      </trkpt>
      <trkpt lat="46.95994" lon="4.68159">
        <ele>449</ele>
        <time>2021-03-07T10:12:57+01:00</time>
      </trkpt>
      <trkpt lat="46.95995" lon="4.68122">
        <ele>444</ele>
        <time>2021-03-07T10:13:02+01:00</time>
      </trkpt>
      <trkpt lat="46.95992" lon="4.68109">
        <ele>442</ele>
        <time>2021-03-07T10:13:07+01:00</time>
      </trkpt>
      <trkpt lat="46.96024" lon="4.68099">
        <ele>444</ele>
        <time>2021-03-07T10:13:12+01:00</time>
      </trkpt>
      <trkpt lat="46.96038" lon="4.6809">
        <ele>444</ele>
        <time>2021-03-07T10:13:17+01:00</time>
      </trkpt>
      <trkpt lat="46.96052" lon="4.68074">
        <ele>442</ele>
        <time>2021-03-07T10:13:22+01:00</time>
      </trkpt>
      <trkpt lat="46.96057" lon="4.6806">
        <ele>439</ele>
        <time>2021-03-07T10:13:27+01:00</time>
      </trkpt>
      <trkpt lat="46.96059" lon="4.68033">
        <ele>434</ele>
        <time>2021-03-07T10:13:32+01:00</time>
      </trkpt>
      <trkpt lat="46.96021" lon="4.68033">
        <ele>432</ele>
        <time>2021-03-07T10:13:37+01:00</time>
      </trkpt>
      <trkpt lat="46.95989" lon="4.6803">
        <ele>429</ele>
        <time>2021-03-07T10:13:42+01:00</time>
      </trkpt>
      <trkpt lat="46.95953" lon="4.68015">
        <ele>423</ele>
        <time>2021-03-07T10:13:47+01:00</time>
      </trkpt>
      <trkpt lat="46.95874" lon="4.67951">
        <ele>412</ele>
        <time>2021-03-07T10:13:52+01:00</time>
      </trkpt>
      <trkpt lat="46.95845" lon="4.67937">
        <ele>409</ele>
        <time>2021-03-07T10:13:57+01:00</time>
      </trkpt>
      <trkpt lat="46.95844" lon="4.67931">
        <ele>409</ele>
        <time>2021-03-07T10:14:02+01:00</time>
      </trkpt>
      <trkpt lat="46.95816" lon="4.67891">
        <ele>407</ele>
        <time>2021-03-07T10:14:07+01:00</time>
      </trkpt>
      <trkpt lat="46.95799" lon="4.67856">
        <ele>406</ele>
        <time>2021-03-07T10:14:12+01:00</time>
      </trkpt>
      <trkpt lat="46.95786" lon="4.67805">
        <ele>406</ele>
        <time>2021-03-07T10:14:17+01:00</time>
      </trkpt>
    </trkseg>
  </trk>
</gpx>